createdAt,value
2023-05-09T00:00:42.808Z,13.77
2023-05-09T00:05:46.294Z,9.80
2023-05-09T00:10:48.844Z,11.57
2023-05-09T00:15:54.067Z,12.27
2023-05-09T00:20:56.808Z,11.83
2023-05-09T00:25:59.793Z,11.63
2023-05-09T00:31:03.158Z,10.10
2023-05-09T00:36:05.803Z,12.33
2023-05-09T00:41:08.380Z,10.10
2023-05-09T00:46:11.796Z,6.33
2023-05-09T00:51:14.507Z,11.83
2023-05-09T00:56:17.553Z,9.33
2023-05-09T01:01:20.108Z,11.73
2023-05-09T01:06:32.862Z,12.80
2023-05-09T01:11:42.701Z,14.03
2023-05-09T01:16:52.198Z,13.03
2023-05-09T01:21:56.595Z,14.83
2023-05-09T01:27:26.766Z,14.90
2023-05-09T01:32:32.110Z,14.33
2023-05-09T01:37:39.492Z,13.20
2023-05-09T01:42:57.066Z,8.53
2023-05-09T01:48:01.672Z,10.23
2023-05-09T01:53:06.421Z,8.97
2023-05-09T01:58:10.713Z,13.13
2023-05-09T02:03:13.979Z,12.30
2023-05-09T02:08:21.203Z,8.80
2023-05-09T02:13:24.185Z,13.97
2023-05-09T02:18:27.569Z,10.77
2023-05-09T02:23:30.491Z,10.50
2023-05-09T02:28:33.674Z,12.80
2023-05-09T02:33:39.204Z,14.47
2023-05-09T02:38:43.163Z,13.80
2023-05-09T02:43:46.036Z,10.83
2023-05-09T02:48:49.491Z,12.50
2023-05-09T02:53:51.934Z,13.07
2023-05-09T02:58:54.670Z,11.40
2023-05-09T03:03:57.359Z,13.27
2023-05-09T03:09:00.840Z,12.50
2023-05-09T03:14:08.391Z,10.17
2023-05-09T03:19:11.349Z,11.67
2023-05-09T03:24:15.284Z,14.63
2023-05-09T03:29:18.962Z,14.87
2023-05-09T03:34:21.735Z,15.17
2023-05-09T03:39:24.338Z,16.53
2023-05-09T03:44:31.838Z,12.03
2023-05-09T03:49:36.512Z,12.47
2023-05-09T03:54:39.405Z,17.00
2023-05-09T03:59:41.972Z,10.13
2023-05-09T04:04:46.720Z,14.80
2023-05-09T04:09:50.305Z,12.23
2023-05-09T04:14:52.870Z,13.33
2023-05-09T04:19:56.361Z,13.70
2023-05-09T04:24:58.901Z,11.00
2023-05-09T04:30:02.058Z,11.60
2023-05-09T04:35:06.169Z,14.40
2023-05-09T04:40:14.658Z,10.97
2023-05-09T04:45:24.350Z,16.93
2023-05-09T04:50:27.000Z,9.13
2023-05-09T04:55:29.552Z,15.73
2023-05-09T05:00:32.863Z,14.03
2023-05-09T05:05:37.498Z,5.33
2023-05-09T05:10:41.649Z,12.33
2023-05-09T05:15:52.577Z,9.67
2023-05-09T05:20:57.480Z,8.67
2023-05-09T05:26:01.300Z,6.03
2023-05-09T05:31:04.830Z,11.30
2023-05-09T05:36:08.484Z,5.73
2023-05-09T05:41:15.694Z,9.73
2023-05-09T05:46:19.134Z,7.27
2023-05-09T05:51:21.838Z,9.13
2023-05-09T05:56:24.568Z,9.03
2023-05-09T06:01:27.637Z,9.90
2023-05-09T06:06:31.083Z,10.07
2023-05-09T06:11:33.712Z,8.70
2023-05-09T06:16:36.862Z,8.20
2023-05-09T06:21:39.484Z,7.17
2023-05-09T06:26:42.040Z,6.60
2023-05-09T06:31:44.593Z,7.40
2023-05-09T06:36:47.215Z,6.07
2023-05-09T06:41:49.638Z,6.47
2023-05-09T06:47:00.132Z,5.40
2023-05-09T06:52:02.748Z,5.57
2023-05-09T06:57:05.383Z,6.13
2023-05-09T07:02:07.969Z,4.70
2023-05-09T07:07:11.476Z,5.20
2023-05-09T07:12:13.883Z,4.17
2023-05-09T07:17:23.543Z,5.33
2023-05-09T07:22:27.378Z,4.90
2023-05-09T07:27:30.770Z,4.93
2023-05-09T07:32:33.442Z,5.00
2023-05-09T07:37:36.064Z,3.97
2023-05-09T07:42:38.667Z,4.13
2023-05-09T07:47:41.180Z,4.43
2023-05-09T07:52:43.709Z,4.00
2023-05-09T07:57:46.712Z,4.30
2023-05-09T08:02:52.568Z,4.33
2023-05-09T08:07:55.134Z,3.53
2023-05-09T08:12:57.667Z,4.17
2023-05-09T08:18:00.268Z,3.47
2023-05-09T08:23:02.832Z,4.00
2023-05-09T08:28:05.342Z,3.87
2023-05-09T08:33:07.873Z,3.37
2023-05-09T08:38:10.489Z,3.80
2023-05-09T08:43:15.507Z,2.87
2023-05-09T08:48:18.762Z,2.87
2023-05-09T08:53:22.289Z,4.20
2023-05-09T08:58:25.017Z,2.40
2023-05-09T09:03:27.698Z,3.57
2023-05-09T09:08:30.355Z,3.00
2023-05-09T09:13:36.101Z,3.60
2023-05-09T09:18:39.968Z,3.67
2023-05-09T09:23:43.823Z,3.17
2023-05-09T09:28:46.334Z,2.77
2023-05-09T09:33:49.299Z,2.60
2023-05-09T09:38:56.418Z,2.60
2023-05-09T09:43:59.037Z,2.27
2023-05-09T09:49:01.939Z,2.27
2023-05-09T09:54:06.840Z,2.50
2023-05-09T09:59:17.564Z,2.57
2023-05-09T10:04:19.999Z,2.93
2023-05-09T10:09:24.214Z,2.47
2023-05-09T10:14:27.124Z,3.53
2023-05-09T10:19:30.583Z,3.27
2023-05-09T10:24:57.760Z,2.70
2023-05-09T10:30:10.409Z,2.97
2023-05-09T10:35:17.112Z,3.20
2023-05-09T10:40:20.544Z,3.90
2023-05-09T10:45:23.416Z,4.00
2023-05-09T10:50:26.832Z,4.93
2023-05-09T10:55:47.936Z,3.53
2023-05-09T11:00:52.168Z,3.30
2023-05-09T11:05:58.509Z,4.23
2023-05-09T11:11:07.686Z,3.60
2023-05-09T11:16:12.219Z,4.17
2023-05-09T11:21:15.173Z,2.03
2023-05-09T11:26:22.481Z,4.13
2023-05-09T11:31:25.112Z,3.13
2023-05-09T11:36:33.683Z,3.37
2023-05-09T11:41:42.224Z,2.67
2023-05-09T11:46:49.250Z,2.10
2023-05-09T11:51:52.316Z,2.70
2023-05-09T11:56:54.896Z,2.70
2023-05-09T12:01:57.813Z,2.20
2023-05-09T12:07:01.395Z,2.23
2023-05-09T12:12:13.645Z,2.20
2023-05-09T12:17:16.409Z,2.00
2023-05-09T12:22:20.237Z,2.10
2023-05-09T12:27:23.553Z,2.10
2023-05-09T12:32:31.737Z,2.10
2023-05-09T12:37:34.479Z,1.90
2023-05-09T12:42:37.297Z,2.40
2023-05-09T12:47:41.943Z,2.13
2023-05-09T12:53:02.006Z,1.90
2023-05-09T12:58:06.062Z,2.43
2023-05-09T13:03:25.368Z,2.30
2023-05-09T13:08:29.528Z,2.47
2023-05-09T13:13:32.203Z,2.47
2023-05-09T13:18:34.712Z,2.57
2023-05-09T13:23:37.247Z,1.90
2023-05-09T13:28:39.645Z,1.80
2023-05-09T13:33:42.176Z,2.60
2023-05-09T13:38:45.631Z,2.27
2023-05-09T13:43:48.462Z,2.40
2023-05-09T13:48:52.683Z,2.60
2023-05-09T13:53:55.214Z,1.80
2023-05-09T13:58:57.686Z,2.67
2023-05-09T14:04:00.267Z,1.47
2023-05-09T14:09:04.080Z,2.07
2023-05-09T14:14:06.605Z,2.13
2023-05-09T14:19:09.202Z,1.93
2023-05-09T14:24:14.997Z,2.17
2023-05-09T14:29:18.504Z,2.90
2023-05-09T14:34:21.092Z,2.30
2023-05-09T14:39:23.695Z,2.00
2023-05-09T14:44:26.231Z,2.00
2023-05-09T14:49:28.810Z,2.47
2023-05-09T14:54:32.237Z,3.23
2023-05-09T14:59:36.855Z,2.33
2023-05-09T15:04:41.426Z,1.63
2023-05-09T15:09:44.770Z,1.87
2023-05-09T15:14:47.237Z,2.00
2023-05-09T15:19:49.793Z,2.43
2023-05-09T15:24:52.270Z,2.37
2023-05-09T15:29:55.196Z,2.33
2023-05-09T15:34:57.701Z,2.60
2023-05-09T15:40:00.371Z,3.10
2023-05-09T15:45:03.857Z,3.47
2023-05-09T15:50:06.869Z,2.13
2023-05-09T15:55:10.158Z,2.10
2023-05-09T16:00:16.143Z,2.63
2023-05-09T16:05:19.351Z,2.20
2023-05-09T16:10:21.914Z,1.87
2023-05-09T16:15:24.420Z,2.03
2023-05-09T16:20:27.343Z,2.97
2023-05-09T16:25:29.917Z,1.40
2023-05-09T16:30:32.421Z,1.83
2023-05-09T16:35:36.088Z,2.40
2023-05-09T16:40:39.031Z,1.90
2023-05-09T16:45:41.583Z,1.97
2023-05-09T16:50:45.355Z,2.50
2023-05-09T16:55:47.769Z,2.77
2023-05-09T17:00:51.016Z,2.23
2023-05-09T17:05:53.507Z,2.43
2023-05-09T17:10:56.096Z,2.00
2023-05-09T17:15:58.610Z,2.17
2023-05-09T17:21:01.621Z,2.20
2023-05-09T17:26:04.845Z,1.80
2023-05-09T17:31:07.486Z,2.30
2023-05-09T17:36:10.004Z,2.20
2023-05-09T17:41:12.444Z,2.70
2023-05-09T17:46:15.140Z,2.90
2023-05-09T17:51:17.733Z,5.07
2023-05-09T17:56:20.117Z,3.50
2023-05-09T18:01:22.591Z,3.07
2023-05-09T18:06:26.351Z,2.73
2023-05-09T18:11:29.087Z,2.40
2023-05-09T18:16:31.785Z,2.73
2023-05-09T18:21:34.430Z,3.63
2023-05-09T18:26:39.171Z,2.93
2023-05-09T18:31:41.875Z,2.30
2023-05-09T18:36:44.533Z,3.47
2023-05-09T18:41:47.053Z,4.40
2023-05-09T18:46:49.604Z,2.57
2023-05-09T18:51:53.682Z,4.87
2023-05-09T18:56:56.073Z,5.63
2023-05-09T19:01:58.582Z,6.93
2023-05-09T19:07:01.031Z,5.27
2023-05-09T19:12:05.106Z,6.23
2023-05-09T19:17:07.872Z,2.63
2023-05-09T19:22:10.494Z,5.10
2023-05-09T19:27:12.994Z,6.03
2023-05-09T19:32:15.481Z,5.40
2023-05-09T19:37:18.037Z,5.90
2023-05-09T19:42:21.541Z,5.30
2023-05-09T19:47:24.035Z,6.33
2023-05-09T19:52:26.626Z,6.00
2023-05-09T19:57:29.283Z,5.10
2023-05-09T20:02:32.898Z,5.17
2023-05-09T20:07:35.465Z,7.47
2023-05-09T20:12:37.946Z,6.67
2023-05-09T20:17:41.046Z,8.00
2023-05-09T20:22:43.618Z,6.17
2023-05-09T20:27:46.066Z,6.80
2023-05-09T20:32:48.727Z,8.93
2023-05-09T20:37:51.508Z,12.27
2023-05-09T20:42:54.101Z,4.93
2023-05-09T20:47:56.875Z,13.77
2023-05-09T20:52:59.557Z,6.33
2023-05-09T20:58:02.203Z,5.50
2023-05-09T21:03:04.745Z,8.23
2023-05-09T21:08:07.272Z,6.00
2023-05-09T21:13:09.739Z,5.43
2023-05-09T21:18:12.557Z,4.93
2023-05-09T21:23:15.149Z,3.33
2023-05-09T21:28:17.720Z,3.63
2023-05-09T21:33:20.740Z,3.43
2023-05-09T21:38:23.407Z,5.80
2023-05-09T21:43:26.233Z,4.30
2023-05-09T21:48:28.814Z,5.37
2023-05-09T21:53:31.522Z,8.17
2023-05-09T21:58:36.692Z,7.43
2023-05-09T22:03:39.254Z,6.80
2023-05-09T22:08:41.779Z,6.50
2023-05-09T22:13:44.331Z,7.30
2023-05-09T22:18:46.957Z,8.10
2023-05-09T22:23:49.516Z,7.67
2023-05-09T22:28:51.985Z,5.97
2023-05-09T22:33:54.518Z,5.77
2023-05-09T22:38:57.015Z,5.70
2023-05-09T22:44:24.243Z,7.37
2023-05-09T22:49:26.792Z,6.03
2023-05-09T22:54:29.348Z,6.50
2023-05-09T22:59:32.140Z,4.03
2023-05-09T23:04:34.766Z,5.40
2023-05-09T23:09:37.335Z,5.90
2023-05-09T23:14:39.875Z,5.43
2023-05-09T23:19:42.582Z,6.60
2023-05-09T23:24:45.084Z,3.73
2023-05-09T23:29:47.634Z,6.73
2023-05-09T23:34:50.060Z,5.93
2023-05-09T23:39:52.450Z,4.30
2023-05-09T23:44:54.942Z,3.67
2023-05-09T23:49:57.500Z,6.50
